sensor_id;sensor_type;location;lat;lon;timestamp;P1;durP1;ratioP1;P2;durP2;ratioP2
29416;SDS011;28421;51.030;4.006;2023-02-21T00:01:08;37.28;;;15.93;;
29416;SDS011;28421;51.030;4.006;2023-02-21T00:03:52;34.42;;;16.95;;
29416;SDS011;28421;51.030;4.006;2023-02-21T00:06:36;31.10;;;16.15;;
29416;SDS011;28421;51.030;4.006;2023-02-21T00:09:19;27.35;;;15.05;;
29416;SDS011;28421;51.030;4.006;2023-02-21T00:12:03;29.77;;;17.98;;
29416;SDS011;28421;51.030;4.006;2023-02-21T00:14:47;32.63;;;16.00;;
29416;SDS011;28421;51.030;4.006;2023-02-21T00:17:31;36.58;;;17.92;;
29416;SDS011;28421;51.030;4.006;2023-02-21T00:20:15;29.73;;;15.85;;
29416;SDS011;28421;51.030;4.006;2023-02-21T00:22:59;28.27;;;16.17;;
29416;SDS011;28421;51.030;4.006;2023-02-21T00:25:43;32.47;;;18.17;;
29416;SDS011;28421;51.030;4.006;2023-02-21T00:28:27;36.15;;;17.52;;
29416;SDS011;28421;51.030;4.006;2023-02-21T00:31:11;39.20;;;19.88;;
29416;SDS011;28421;51.030;4.006;2023-02-21T05:37:30;21.60;;;9.02;;
29416;SDS011;28421;51.030;4.006;2023-02-21T05:39:56;23.55;;;10.70;;
29416;SDS011;28421;51.030;4.006;2023-02-21T05:42:21;21.42;;;9.95;;
29416;SDS011;28421;51.030;4.006;2023-02-21T05:44:46;23.05;;;10.52;;
29416;SDS011;28421;51.030;4.006;2023-02-21T05:47:12;21.92;;;10.35;;
29416;SDS011;28421;51.030;4.006;2023-02-21T05:49:39;20.27;;;8.93;;
29416;SDS011;28421;51.030;4.006;2023-02-21T05:52:05;22.63;;;10.00;;
29416;SDS011;28421;51.030;4.006;2023-02-21T05:54:32;20.35;;;8.88;;
29416;SDS011;28421;51.030;4.006;2023-02-21T05:56:57;23.58;;;11.13;;
29416;SDS011;28421;51.030;4.006;2023-02-21T05:59:23;27.58;;;12.02;;
29416;SDS011;28421;51.030;4.006;2023-02-21T06:01:49;32.30;;;13.00;;
29416;SDS011;28421;51.030;4.006;2023-02-21T06:04:15;23.35;;;10.52;;
29416;SDS011;28421;51.030;4.006;2023-02-21T06:06:40;21.30;;;9.75;;
29416;SDS011;28421;51.030;4.006;2023-02-21T06:09:06;29.63;;;12.48;;
29416;SDS011;28421;51.030;4.006;2023-02-21T06:11:33;23.00;;;10.98;;
29416;SDS011;28421;51.030;4.006;2023-02-21T06:14:01;19.00;;;9.45;;
29416;SDS011;28421;51.030;4.006;2023-02-21T06:16:31;20.55;;;9.43;;
29416;SDS011;28421;51.030;4.006;2023-02-21T06:18:59;18.17;;;10.00;;
29416;SDS011;28421;51.030;4.006;2023-02-21T06:21:24;20.00;;;10.23;;
29416;SDS011;28421;51.030;4.006;2023-02-21T06:23:50;21.40;;;10.48;;
29416;SDS011;28421;51.030;4.006;2023-02-21T06:26:15;17.55;;;8.52;;
29416;SDS011;28421;51.030;4.006;2023-02-21T06:28:42;26.20;;;9.15;;
29416;SDS011;28421;51.030;4.006;2023-02-21T06:31:07;26.02;;;10.95;;
29416;SDS011;28421;51.030;4.006;2023-02-21T06:33:33;26.17;;;11.32;;
29416;SDS011;28421;51.030;4.006;2023-02-21T06:36:02;21.25;;;9.25;;
29416;SDS011;28421;51.030;4.006;2023-02-21T06:38:29;19.23;;;8.70;;
29416;SDS011;28421;51.030;4.006;2023-02-21T06:40:54;21.27;;;8.70;;
29416;SDS011;28421;51.030;4.006;2023-02-21T06:43:23;20.55;;;8.95;;
29416;SDS011;28421;51.030;4.006;2023-02-21T06:45:49;19.95;;;8.85;;
29416;SDS011;28421;51.030;4.006;2023-02-21T06:48:14;20.00;;;9.70;;
29416;SDS011;28421;51.030;4.006;2023-02-21T06:50:41;19.48;;;9.43;;
29416;SDS011;28421;51.030;4.006;2023-02-21T06:53:06;26.70;;;9.60;;
29416;SDS011;28421;51.030;4.006;2023-02-21T06:55:32;19.15;;;8.68;;
29416;SDS011;28421;51.030;4.006;2023-02-21T06:57:57;19.02;;;8.15;;
29416;SDS011;28421;51.030;4.006;2023-02-21T07:00:23;32.33;;;15.18;;
29416;SDS011;28421;51.030;4.006;2023-02-21T07:02:51;27.17;;;11.65;;
29416;SDS011;28421;51.030;4.006;2023-02-21T07:05:17;22.73;;;9.02;;
29416;SDS011;28421;51.030;4.006;2023-02-21T07:07:43;18.83;;;8.50;;
29416;SDS011;28421;51.030;4.006;2023-02-21T07:10:08;22.05;;;8.85;;
29416;SDS011;28421;51.030;4.006;2023-02-21T07:12:34;24.88;;;9.80;;
29416;SDS011;28421;51.030;4.006;2023-02-21T07:14:59;19.85;;;9.00;;
29416;SDS011;28421;51.030;4.006;2023-02-21T07:17:25;18.80;;;8.35;;
29416;SDS011;28421;51.030;4.006;2023-02-21T07:19:50;21.20;;;9.52;;
29416;SDS011;28421;51.030;4.006;2023-02-21T07:22:16;19.55;;;9.68;;
29416;SDS011;28421;51.030;4.006;2023-02-21T07:24:43;18.08;;;9.20;;
29416;SDS011;28421;51.030;4.006;2023-02-21T07:27:08;16.15;;;7.80;;
29416;SDS011;28421;51.030;4.006;2023-02-21T07:29:34;16.05;;;7.85;;
29416;SDS011;28421;51.030;4.006;2023-02-21T07:31:59;17.60;;;8.05;;
29416;SDS011;28421;51.030;4.006;2023-02-21T07:34:25;17.52;;;7.38;;
29416;SDS011;28421;51.030;4.006;2023-02-21T07:36:50;18.73;;;9.02;;
29416;SDS011;28421;51.030;4.006;2023-02-21T07:39:16;15.43;;;7.45;;
29416;SDS011;28421;51.030;4.006;2023-02-21T07:41:41;17.50;;;7.45;;
29416;SDS011;28421;51.030;4.006;2023-02-21T07:44:08;16.08;;;7.90;;
29416;SDS011;28421;51.030;4.006;2023-02-21T07:46:34;15.23;;;7.55;;
29416;SDS011;28421;51.030;4.006;2023-02-21T07:48:59;19.88;;;8.57;;
29416;SDS011;28421;51.030;4.006;2023-02-21T07:51:30;21.50;;;8.02;;
29416;SDS011;28421;51.030;4.006;2023-02-21T07:53:56;14.77;;;7.15;;
29416;SDS011;28421;51.030;4.006;2023-02-21T07:56:22;16.45;;;7.20;;
29416;SDS011;28421;51.030;4.006;2023-02-21T07:58:47;15.82;;;7.93;;
29416;SDS011;28421;51.030;4.006;2023-02-21T08:01:13;18.75;;;7.95;;
29416;SDS011;28421;51.030;4.006;2023-02-21T08:03:39;19.08;;;8.85;;
29416;SDS011;28421;51.030;4.006;2023-02-21T08:06:05;20.13;;;8.70;;
29416;SDS011;28421;51.030;4.006;2023-02-21T08:08:31;21.23;;;8.23;;
29416;SDS011;28421;51.030;4.006;2023-02-21T08:10:57;17.52;;;7.53;;
29416;SDS011;28421;51.030;4.006;2023-02-21T08:13:22;20.63;;;8.00;;
29416;SDS011;28421;51.030;4.006;2023-02-21T08:15:48;22.13;;;8.50;;
29416;SDS011;28421;51.030;4.006;2023-02-21T08:18:17;19.73;;;7.75;;
29416;SDS011;28421;51.030;4.006;2023-02-21T08:20:48;18.83;;;7.50;;
29416;SDS011;28421;51.030;4.006;2023-02-21T08:23:19;14.30;;;7.05;;
29416;SDS011;28421;51.030;4.006;2023-02-21T08:25:45;20.25;;;8.40;;
29416;SDS011;28421;51.030;4.006;2023-02-21T08:28:11;17.63;;;7.65;;
29416;SDS011;28421;51.030;4.006;2023-02-21T08:30:37;24.77;;;11.25;;
29416;SDS011;28421;51.030;4.006;2023-02-21T08:33:02;24.42;;;10.77;;
29416;SDS011;28421;51.030;4.006;2023-02-21T08:35:28;28.92;;;10.55;;
29416;SDS011;28421;51.030;4.006;2023-02-21T08:37:53;23.90;;;11.30;;
29416;SDS011;28421;51.030;4.006;2023-02-21T08:40:27;28.88;;;13.00;;
29416;SDS011;28421;51.030;4.006;2023-02-21T08:42:54;33.63;;;11.57;;
29416;SDS011;28421;51.030;4.006;2023-02-21T08:45:22;38.13;;;12.60;;
29416;SDS011;28421;51.030;4.006;2023-02-21T08:47:48;37.45;;;14.18;;
29416;SDS011;28421;51.030;4.006;2023-02-21T08:50:15;36.53;;;14.20;;
29416;SDS011;28421;51.030;4.006;2023-02-21T08:52:41;32.47;;;12.10;;
29416;SDS011;28421;51.030;4.006;2023-02-21T08:55:07;32.38;;;11.98;;
29416;SDS011;28421;51.030;4.006;2023-02-21T08:57:32;30.52;;;11.68;;
29416;SDS011;28421;51.030;4.006;2023-02-21T08:59:59;43.72;;;14.63;;
29416;SDS011;28421;51.030;4.006;2023-02-21T09:02:25;32.25;;;12.85;;
29416;SDS011;28421;51.030;4.006;2023-02-21T09:04:51;31.13;;;11.60;;
29416;SDS011;28421;51.030;4.006;2023-02-21T09:07:17;35.83;;;12.27;;
29416;SDS011;28421;51.030;4.006;2023-02-21T09:09:44;31.85;;;12.02;;
29416;SDS011;28421;51.030;4.006;2023-02-21T09:12:10;29.52;;;12.20;;
29416;SDS011;28421;51.030;4.006;2023-02-21T09:14:36;31.55;;;12.13;;
29416;SDS011;28421;51.030;4.006;2023-02-21T09:17:04;31.30;;;11.75;;
29416;SDS011;28421;51.030;4.006;2023-02-21T09:19:30;32.05;;;12.52;;
29416;SDS011;28421;51.030;4.006;2023-02-21T09:21:56;24.45;;;10.45;;
29416;SDS011;28421;51.030;4.006;2023-02-21T09:24:22;27.35;;;10.65;;
29416;SDS011;28421;51.030;4.006;2023-02-21T09:26:52;28.30;;;11.93;;
29416;SDS011;28421;51.030;4.006;2023-02-21T09:29:28;30.02;;;11.43;;
29416;SDS011;28421;51.030;4.006;2023-02-21T09:31:55;25.45;;;11.45;;
29416;SDS011;28421;51.030;4.006;2023-02-21T09:34:20;28.25;;;11.95;;
29416;SDS011;28421;51.030;4.006;2023-02-21T09:36:46;25.02;;;11.45;;
29416;SDS011;28421;51.030;4.006;2023-02-21T09:39:13;27.02;;;10.98;;
29416;SDS011;28421;51.030;4.006;2023-02-21T09:41:39;25.75;;;9.82;;
29416;SDS011;28421;51.030;4.006;2023-02-21T09:44:09;26.02;;;9.65;;
29416;SDS011;28421;51.030;4.006;2023-02-21T09:49:23;27.83;;;11.38;;
29416;SDS011;28421;51.030;4.006;2023-02-21T09:51:57;25.92;;;10.02;;
29416;SDS011;28421;51.030;4.006;2023-02-21T09:54:30;25.52;;;9.70;;
29416;SDS011;28421;51.030;4.006;2023-02-21T09:56:59;30.80;;;11.90;;
29416;SDS011;28421;51.030;4.006;2023-02-21T09:59:27;24.27;;;10.55;;
29416;SDS011;28421;51.030;4.006;2023-02-21T10:04:39;21.95;;;8.00;;
29416;SDS011;28421;51.030;4.006;2023-02-21T10:07:17;23.10;;;9.50;;
29416;SDS011;28421;51.030;4.006;2023-02-21T10:09:52;28.85;;;10.98;;
29416;SDS011;28421;51.030;4.006;2023-02-21T10:12:25;24.25;;;9.82;;
29416;SDS011;28421;51.030;4.006;2023-02-21T10:17:25;19.17;;;8.60;;
29416;SDS011;28421;51.030;4.006;2023-02-21T10:20:14;25.52;;;9.15;;
29416;SDS011;28421;51.030;4.006;2023-02-21T10:22:47;17.80;;;8.50;;
29416;SDS011;28421;51.030;4.006;2023-02-21T10:27:49;24.27;;;9.20;;
29416;SDS011;28421;51.030;4.006;2023-02-21T10:32:59;20.83;;;8.80;;
29416;SDS011;28421;51.030;4.006;2023-02-21T10:35:31;22.95;;;8.82;;
29416;SDS011;28421;51.030;4.006;2023-02-21T10:37:58;16.88;;;8.57;;
29416;SDS011;28421;51.030;4.006;2023-02-21T10:40:30;18.55;;;9.32;;
29416;SDS011;28421;51.030;4.006;2023-02-21T10:43:00;25.20;;;10.35;;
29416;SDS011;28421;51.030;4.006;2023-02-21T10:45:35;20.38;;;8.52;;
29416;SDS011;28421;51.030;4.006;2023-02-21T10:48:14;17.70;;;9.02;;
29416;SDS011;28421;51.030;4.006;2023-02-21T10:50:47;17.42;;;8.82;;
29416;SDS011;28421;51.030;4.006;2023-02-21T10:53:22;18.15;;;9.30;;
29416;SDS011;28421;51.030;4.006;2023-02-21T10:58:58;20.25;;;9.48;;
29416;SDS011;28421;51.030;4.006;2023-02-21T11:03:59;23.48;;;11.35;;
29416;SDS011;28421;51.030;4.006;2023-02-21T11:06:38;21.42;;;10.55;;
29416;SDS011;28421;51.030;4.006;2023-02-21T11:09:29;24.83;;;9.55;;
29416;SDS011;28421;51.030;4.006;2023-02-21T11:17:21;20.98;;;9.98;;
29416;SDS011;28421;51.030;4.006;2023-02-21T11:19:52;18.90;;;9.25;;
29416;SDS011;28421;51.030;4.006;2023-02-21T11:22:37;15.07;;;7.45;;
29416;SDS011;28421;51.030;4.006;2023-02-21T11:30:25;22.23;;;8.50;;
29416;SDS011;28421;51.030;4.006;2023-02-21T11:32:51;21.65;;;9.93;;
29416;SDS011;28421;51.030;4.006;2023-02-21T11:38:02;20.58;;;9.18;;
29416;SDS011;28421;51.030;4.006;2023-02-21T11:40:40;16.90;;;7.70;;
29416;SDS011;28421;51.030;4.006;2023-02-21T11:45:48;15.27;;;7.93;;
29416;SDS011;28421;51.030;4.006;2023-02-21T11:48:50;17.08;;;7.82;;
29416;SDS011;28421;51.030;4.006;2023-02-21T11:51:50;13.65;;;7.60;;
29416;SDS011;28421;51.030;4.006;2023-02-21T11:54:23;14.90;;;7.75;;
29416;SDS011;28421;51.030;4.006;2023-02-21T12:05:29;15.80;;;7.13;;
29416;SDS011;28421;51.030;4.006;2023-02-21T12:34:37;10.82;;;5.80;;
29416;SDS011;28421;51.030;4.006;2023-02-21T12:42:24;8.80;;;5.30;;
29416;SDS011;28421;51.030;4.006;2023-02-21T12:47:45;8.40;;;5.13;;
29416;SDS011;28421;51.030;4.006;2023-02-21T12:50:25;8.52;;;5.93;;
29416;SDS011;28421;51.030;4.006;2023-02-21T12:53:31;10.75;;;5.53;;
29416;SDS011;28421;51.030;4.006;2023-02-21T12:55:58;8.85;;;5.47;;
29416;SDS011;28421;51.030;4.006;2023-02-21T12:58:32;10.48;;;6.18;;
29416;SDS011;28421;51.030;4.006;2023-02-21T13:01:24;6.78;;;4.10;;
29416;SDS011;28421;51.030;4.006;2023-02-21T13:06:25;9.45;;;5.20;;
29416;SDS011;28421;51.030;4.006;2023-02-21T13:11:40;9.32;;;5.40;;
29416;SDS011;28421;51.030;4.006;2023-02-21T13:14:15;14.88;;;6.40;;
29416;SDS011;28421;51.030;4.006;2023-02-21T13:16:43;11.18;;;6.40;;
29416;SDS011;28421;51.030;4.006;2023-02-21T13:19:09;11.55;;;6.45;;
29416;SDS011;28421;51.030;4.006;2023-02-21T13:29:36;8.77;;;5.18;;
29416;SDS011;28421;51.030;4.006;2023-02-21T13:34:37;12.15;;;6.45;;
29416;SDS011;28421;51.030;4.006;2023-02-21T13:37:12;11.52;;;6.35;;
29416;SDS011;28421;51.030;4.006;2023-02-21T13:43:15;8.32;;;5.80;;
29416;SDS011;28421;51.030;4.006;2023-02-21T13:45:47;10.60;;;5.65;;
29416;SDS011;28421;51.030;4.006;2023-02-21T13:48:17;13.52;;;7.20;;
29416;SDS011;28421;51.030;4.006;2023-02-21T13:50:50;14.30;;;6.43;;
29416;SDS011;28421;51.030;4.006;2023-02-21T13:53:19;13.40;;;7.32;;
29416;SDS011;28421;51.030;4.006;2023-02-21T13:59:06;11.52;;;6.30;;
29416;SDS011;28421;51.030;4.006;2023-02-21T14:01:18;11.60;;;6.60;;
29416;SDS011;28421;51.030;4.006;2023-02-21T14:03:47;10.50;;;6.43;;
29416;SDS011;28421;51.030;4.006;2023-02-21T14:06:28;10.95;;;6.63;;
29416;SDS011;28421;51.030;4.006;2023-02-21T14:08:57;14.05;;;7.88;;
29416;SDS011;28421;51.030;4.006;2023-02-21T14:11:33;12.35;;;6.00;;
29416;SDS011;28421;51.030;4.006;2023-02-21T14:14:16;11.45;;;6.07;;
29416;SDS011;28421;51.030;4.006;2023-02-21T14:16:46;9.90;;;6.15;;
29416;SDS011;28421;51.030;4.006;2023-02-21T14:22:15;9.73;;;6.15;;
29416;SDS011;28421;51.030;4.006;2023-02-21T14:24:49;14.82;;;7.00;;
29416;SDS011;28421;51.030;4.006;2023-02-21T14:32:34;11.77;;;5.88;;
29416;SDS011;28421;51.030;4.006;2023-02-21T14:37:44;12.15;;;7.18;;
29416;SDS011;28421;51.030;4.006;2023-02-21T14:45:44;11.05;;;7.43;;
29416;SDS011;28421;51.030;4.006;2023-02-21T15:02:37;11.80;;;7.00;;
29416;SDS011;28421;51.030;4.006;2023-02-21T15:05:18;13.80;;;7.65;;
29416;SDS011;28421;51.030;4.006;2023-02-21T15:07:53;14.15;;;7.80;;
29416;SDS011;28421;51.030;4.006;2023-02-21T15:12:59;12.63;;;7.93;;
29416;SDS011;28421;51.030;4.006;2023-02-21T15:15:49;13.48;;;7.03;;
29416;SDS011;28421;51.030;4.006;2023-02-21T15:18:23;13.98;;;8.07;;
29416;SDS011;28421;51.030;4.006;2023-02-21T15:21:06;11.77;;;7.05;;
29416;SDS011;28421;51.030;4.006;2023-02-21T15:23:39;19.40;;;7.72;;
29416;SDS011;28421;51.030;4.006;2023-02-21T15:26:18;11.45;;;7.18;;
29416;SDS011;28421;51.030;4.006;2023-02-21T15:31:53;13.77;;;7.43;;
29416;SDS011;28421;51.030;4.006;2023-02-21T15:34:21;17.48;;;8.23;;
29416;SDS011;28421;51.030;4.006;2023-02-21T15:39:41;12.23;;;7.60;;
29416;SDS011;28421;51.030;4.006;2023-02-21T15:42:13;15.25;;;8.38;;
29416;SDS011;28421;51.030;4.006;2023-02-21T15:44:42;14.27;;;8.52;;
29416;SDS011;28421;51.030;4.006;2023-02-21T15:47:29;14.95;;;7.72;;
29416;SDS011;28421;51.030;4.006;2023-02-21T15:49:59;16.30;;;8.65;;
29416;SDS011;28421;51.030;4.006;2023-02-21T15:57:43;14.15;;;8.35;;
29416;SDS011;28421;51.030;4.006;2023-02-21T16:00:24;16.42;;;9.02;;
29416;SDS011;28421;51.030;4.006;2023-02-21T16:02:52;16.63;;;8.77;;
29416;SDS011;28421;51.030;4.006;2023-02-21T16:06:06;17.13;;;9.63;;
29416;SDS011;28421;51.030;4.006;2023-02-21T16:08:38;18.65;;;9.05;;
29416;SDS011;28421;51.030;4.006;2023-02-21T16:11:14;19.52;;;10.73;;
29416;SDS011;28421;51.030;4.006;2023-02-21T16:13:39;16.05;;;9.82;;
29416;SDS011;28421;51.030;4.006;2023-02-21T16:16:06;20.92;;;10.63;;
29416;SDS011;28421;51.030;4.006;2023-02-21T16:18:33;20.88;;;11.18;;
29416;SDS011;28421;51.030;4.006;2023-02-21T16:21:00;20.38;;;11.32;;
29416;SDS011;28421;51.030;4.006;2023-02-21T16:23:34;18.63;;;10.23;;
29416;SDS011;28421;51.030;4.006;2023-02-21T16:28:36;21.77;;;11.60;;
29416;SDS011;28421;51.030;4.006;2023-02-21T16:31:04;20.83;;;10.80;;
29416;SDS011;28421;51.030;4.006;2023-02-21T16:33:31;19.40;;;10.13;;
29416;SDS011;28421;51.030;4.006;2023-02-21T16:35:58;19.65;;;10.23;;
29416;SDS011;28421;51.030;4.006;2023-02-21T16:38:25;20.85;;;10.95;;
29416;SDS011;28421;51.030;4.006;2023-02-21T16:40:51;21.73;;;10.95;;
29416;SDS011;28421;51.030;4.006;2023-02-21T16:43:21;25.58;;;10.93;;
29416;SDS011;28421;51.030;4.006;2023-02-21T16:45:50;27.05;;;11.02;;
29416;SDS011;28421;51.030;4.006;2023-02-21T16:48:19;26.58;;;11.90;;
29416;SDS011;28421;51.030;4.006;2023-02-21T16:50:48;23.25;;;12.00;;
29416;SDS011;28421;51.030;4.006;2023-02-21T16:53:18;20.52;;;11.00;;
29416;SDS011;28421;51.030;4.006;2023-02-21T16:55:45;25.60;;;10.70;;
29416;SDS011;28421;51.030;4.006;2023-02-21T17:01:05;32.53;;;12.50;;
29416;SDS011;28421;51.030;4.006;2023-02-21T17:03:35;23.52;;;11.60;;
29416;SDS011;28421;51.030;4.006;2023-02-21T17:06:00;35.33;;;15.90;;
29416;SDS011;28421;51.030;4.006;2023-02-21T17:08:26;40.05;;;16.67;;
29416;SDS011;28421;51.030;4.006;2023-02-21T17:10:52;35.97;;;16.27;;
29416;SDS011;28421;51.030;4.006;2023-02-21T17:13:18;38.95;;;17.23;;
29416;SDS011;28421;51.030;4.006;2023-02-21T17:15:43;38.13;;;16.23;;
29416;SDS011;28421;51.030;4.006;2023-02-21T17:18:11;38.15;;;15.45;;
29416;SDS011;28421;51.030;4.006;2023-02-21T17:20:37;41.20;;;16.15;;
29416;SDS011;28421;51.030;4.006;2023-02-21T17:23:02;37.70;;;16.55;;
29416;SDS011;28421;51.030;4.006;2023-02-21T17:25:28;38.67;;;16.45;;
29416;SDS011;28421;51.030;4.006;2023-02-21T17:27:54;37.20;;;16.55;;
29416;SDS011;28421;51.030;4.006;2023-02-21T17:30:21;37.92;;;15.70;;
29416;SDS011;28421;51.030;4.006;2023-02-21T17:32:48;44.92;;;18.98;;
29416;SDS011;28421;51.030;4.006;2023-02-21T17:35:15;36.20;;;17.40;;
29416;SDS011;28421;51.030;4.006;2023-02-21T17:37:43;36.95;;;18.73;;
29416;SDS011;28421;51.030;4.006;2023-02-21T17:40:11;39.80;;;17.65;;
29416;SDS011;28421;51.030;4.006;2023-02-21T17:42:37;34.00;;;17.40;;
29416;SDS011;28421;51.030;4.006;2023-02-21T17:45:05;41.85;;;18.08;;
29416;SDS011;28421;51.030;4.006;2023-02-21T17:47:30;44.28;;;17.63;;
29416;SDS011;28421;51.030;4.006;2023-02-21T17:49:57;33.50;;;17.00;;
29416;SDS011;28421;51.030;4.006;2023-02-21T17:52:24;39.42;;;18.63;;
29416;SDS011;28421;51.030;4.006;2023-02-21T17:54:50;37.28;;;17.10;;
29416;SDS011;28421;51.030;4.006;2023-02-21T17:57:16;34.90;;;16.17;;
29416;SDS011;28421;51.030;4.006;2023-02-21T17:59:42;35.35;;;17.08;;
29416;SDS011;28421;51.030;4.006;2023-02-21T18:02:09;30.95;;;16.08;;
29416;SDS011;28421;51.030;4.006;2023-02-21T18:04:35;33.47;;;16.70;;
29416;SDS011;28421;51.030;4.006;2023-02-21T18:07:01;28.25;;;14.43;;
29416;SDS011;28421;51.030;4.006;2023-02-21T18:09:27;32.40;;;16.15;;
29416;SDS011;28421;51.030;4.006;2023-02-21T18:11:53;33.35;;;16.77;;
29416;SDS011;28421;51.030;4.006;2023-02-21T18:14:20;33.95;;;16.65;;
29416;SDS011;28421;51.030;4.006;2023-02-21T18:16:47;31.10;;;15.60;;
29416;SDS011;28421;51.030;4.006;2023-02-21T18:19:13;38.47;;;20.02;;
29416;SDS011;28421;51.030;4.006;2023-02-21T18:21:39;33.35;;;17.52;;
29416;SDS011;28421;51.030;4.006;2023-02-21T18:24:08;33.47;;;17.05;;
29416;SDS011;28421;51.030;4.006;2023-02-21T18:26:35;31.77;;;15.73;;
29416;SDS011;28421;51.030;4.006;2023-02-21T18:29:01;26.83;;;14.18;;
29416;SDS011;28421;51.030;4.006;2023-02-21T18:31:27;31.30;;;15.35;;
29416;SDS011;28421;51.030;4.006;2023-02-21T18:33:53;29.05;;;14.57;;
29416;SDS011;28421;51.030;4.006;2023-02-21T18:36:18;32.03;;;16.02;;
29416;SDS011;28421;51.030;4.006;2023-02-21T18:38:43;26.92;;;13.50;;
29416;SDS011;28421;51.030;4.006;2023-02-21T18:41:13;31.13;;;15.45;;
29416;SDS011;28421;51.030;4.006;2023-02-21T18:43:40;30.75;;;14.50;;
29416;SDS011;28421;51.030;4.006;2023-02-21T18:46:08;31.10;;;15.90;;
29416;SDS011;28421;51.030;4.006;2023-02-21T18:48:35;30.77;;;14.77;;
29416;SDS011;28421;51.030;4.006;2023-02-21T18:51:01;29.70;;;14.73;;
29416;SDS011;28421;51.030;4.006;2023-02-21T18:53:27;30.02;;;14.50;;
29416;SDS011;28421;51.030;4.006;2023-02-21T18:55:53;28.52;;;15.00;;
29416;SDS011;28421;51.030;4.006;2023-02-21T18:58:18;30.65;;;15.77;;
29416;SDS011;28421;51.030;4.006;2023-02-21T19:00:44;29.70;;;14.98;;
29416;SDS011;28421;51.030;4.006;2023-02-21T19:03:11;35.47;;;17.38;;
29416;SDS011;28421;51.030;4.006;2023-02-21T19:05:37;38.63;;;17.60;;
29416;SDS011;28421;51.030;4.006;2023-02-21T19:08:02;30.55;;;16.23;;
29416;SDS011;28421;51.030;4.006;2023-02-21T19:10:28;41.83;;;18.60;;
29416;SDS011;28421;51.030;4.006;2023-02-21T19:12:54;35.95;;;16.02;;
29416;SDS011;28421;51.030;4.006;2023-02-21T19:15:23;37.00;;;16.65;;
29416;SDS011;28421;51.030;4.006;2023-02-21T19:17:49;39.58;;;18.02;;
29416;SDS011;28421;51.030;4.006;2023-02-21T19:20:15;39.13;;;18.33;;
29416;SDS011;28421;51.030;4.006;2023-02-21T19:22:43;37.63;;;18.42;;
29416;SDS011;28421;51.030;4.006;2023-02-21T19:25:10;37.63;;;18.23;;
29416;SDS011;28421;51.030;4.006;2023-02-21T19:27:36;31.75;;;16.88;;
29416;SDS011;28421;51.030;4.006;2023-02-21T19:30:01;36.67;;;18.70;;
29416;SDS011;28421;51.030;4.006;2023-02-21T19:32:27;45.45;;;18.70;;
29416;SDS011;28421;51.030;4.006;2023-02-21T19:34:53;36.42;;;18.70;;
29416;SDS011;28421;51.030;4.006;2023-02-21T19:37:18;35.05;;;16.25;;
29416;SDS011;28421;51.030;4.006;2023-02-21T19:39:44;34.85;;;17.58;;
29416;SDS011;28421;51.030;4.006;2023-02-21T19:42:09;34.97;;;15.80;;
29416;SDS011;28421;51.030;4.006;2023-02-21T19:44:35;34.40;;;15.88;;
29416;SDS011;28421;51.030;4.006;2023-02-21T19:47:01;34.00;;;16.13;;
29416;SDS011;28421;51.030;4.006;2023-02-21T19:49:26;36.20;;;16.42;;
29416;SDS011;28421;51.030;4.006;2023-02-21T19:51:53;42.85;;;18.05;;
29416;SDS011;28421;51.030;4.006;2023-02-21T19:54:21;36.70;;;16.02;;
29416;SDS011;28421;51.030;4.006;2023-02-21T19:56:54;40.65;;;18.08;;
29416;SDS011;28421;51.030;4.006;2023-02-21T19:59:20;43.15;;;18.33;;
29416;SDS011;28421;51.030;4.006;2023-02-21T20:01:46;38.58;;;18.15;;
29416;SDS011;28421;51.030;4.006;2023-02-21T20:04:11;36.25;;;16.02;;
29416;SDS011;28421;51.030;4.006;2023-02-21T20:06:37;41.33;;;17.90;;
29416;SDS011;28421;51.030;4.006;2023-02-21T20:09:06;38.47;;;18.20;;
29416;SDS011;28421;51.030;4.006;2023-02-21T20:11:33;44.22;;;19.15;;
29416;SDS011;28421;51.030;4.006;2023-02-21T20:13:59;35.22;;;16.13;;
29416;SDS011;28421;51.030;4.006;2023-02-21T20:16:25;38.55;;;17.15;;
29416;SDS011;28421;51.030;4.006;2023-02-21T20:18:52;33.80;;;15.80;;
29416;SDS011;28421;51.030;4.006;2023-02-21T20:21:21;40.67;;;17.38;;
29416;SDS011;28421;51.030;4.006;2023-02-21T20:23:52;42.33;;;16.30;;
29416;SDS011;28421;51.030;4.006;2023-02-21T20:26:18;40.72;;;17.00;;
29416;SDS011;28421;51.030;4.006;2023-02-21T20:28:47;30.58;;;15.68;;
29416;SDS011;28421;51.030;4.006;2023-02-21T20:31:14;40.70;;;18.20;;
29416;SDS011;28421;51.030;4.006;2023-02-21T20:33:40;33.70;;;15.57;;
29416;SDS011;28421;51.030;4.006;2023-02-21T20:36:06;27.98;;;13.02;;
29416;SDS011;28421;51.030;4.006;2023-02-21T20:38:33;39.53;;;16.60;;
29416;SDS011;28421;51.030;4.006;2023-02-21T20:40:59;28.33;;;12.23;;
29416;SDS011;28421;51.030;4.006;2023-02-21T20:43:25;28.92;;;12.18;;
29416;SDS011;28421;51.030;4.006;2023-02-21T20:45:51;32.38;;;15.60;;
29416;SDS011;28421;51.030;4.006;2023-02-21T20:48:17;30.40;;;12.50;;
29416;SDS011;28421;51.030;4.006;2023-02-21T20:50:43;28.63;;;14.15;;
29416;SDS011;28421;51.030;4.006;2023-02-21T20:53:10;25.10;;;11.85;;
29416;SDS011;28421;51.030;4.006;2023-02-21T20:55:36;24.50;;;12.57;;
29416;SDS011;28421;51.030;4.006;2023-02-21T20:58:02;27.90;;;12.65;;
29416;SDS011;28421;51.030;4.006;2023-02-21T21:00:29;22.48;;;11.43;;
29416;SDS011;28421;51.030;4.006;2023-02-21T21:02:55;23.75;;;11.30;;
29416;SDS011;28421;51.030;4.006;2023-02-21T21:05:21;20.10;;;9.75;;
29416;SDS011;28421;51.030;4.006;2023-02-21T21:07:46;17.13;;;9.02;;
29416;SDS011;28421;51.030;4.006;2023-02-21T21:10:13;13.02;;;6.88;;
29416;SDS011;28421;51.030;4.006;2023-02-21T21:12:40;9.68;;;6.75;;
29416;SDS011;28421;51.030;4.006;2023-02-21T21:15:06;9.20;;;5.72;;
29416;SDS011;28421;51.030;4.006;2023-02-21T21:17:34;10.75;;;6.10;;
29416;SDS011;28421;51.030;4.006;2023-02-21T21:20:01;9.80;;;6.45;;
29416;SDS011;28421;51.030;4.006;2023-02-21T21:22:32;9.77;;;6.18;;
29416;SDS011;28421;51.030;4.006;2023-02-21T21:24:58;17.80;;;7.50;;
29416;SDS011;28421;51.030;4.006;2023-02-21T21:27:23;13.27;;;6.68;;
29416;SDS011;28421;51.030;4.006;2023-02-21T21:29:48;35.08;;;11.75;;
29416;SDS011;28421;51.030;4.006;2023-02-21T21:32:16;18.60;;;9.35;;
29416;SDS011;28421;51.030;4.006;2023-02-21T21:34:53;9.35;;;5.55;;
29416;SDS011;28421;51.030;4.006;2023-02-21T21:37:24;12.38;;;6.72;;
29416;SDS011;28421;51.030;4.006;2023-02-21T21:39:52;12.38;;;6.32;;
29416;SDS011;28421;51.030;4.006;2023-02-21T21:42:20;17.80;;;8.00;;
29416;SDS011;28421;51.030;4.006;2023-02-21T21:44:53;21.03;;;8.67;;
29416;SDS011;28421;51.030;4.006;2023-02-21T21:47:20;17.15;;;8.65;;
29416;SDS011;28421;51.030;4.006;2023-02-21T21:49:47;15.98;;;8.45;;
29416;SDS011;28421;51.030;4.006;2023-02-21T21:52:14;18.17;;;9.50;;
29416;SDS011;28421;51.030;4.006;2023-02-21T21:54:42;19.45;;;10.32;;
29416;SDS011;28421;51.030;4.006;2023-02-21T21:57:10;26.90;;;13.30;;
29416;SDS011;28421;51.030;4.006;2023-02-21T21:59:36;28.25;;;14.73;;
29416;SDS011;28421;51.030;4.006;2023-02-21T22:02:08;26.05;;;12.98;;
29416;SDS011;28421;51.030;4.006;2023-02-21T22:04:38;26.13;;;12.30;;
29416;SDS011;28421;51.030;4.006;2023-02-21T22:07:04;26.65;;;12.15;;
29416;SDS011;28421;51.030;4.006;2023-02-21T22:09:32;26.52;;;13.38;;
29416;SDS011;28421;51.030;4.006;2023-02-21T22:11:59;25.10;;;12.43;;
29416;SDS011;28421;51.030;4.006;2023-02-21T22:14:26;29.50;;;14.82;;